Time;durP1;ratioP1;P1;durP2;ratioP2;P2;SDS_P1;SDS_P2;PMS_P1;PMS_P2;Temp;Humidity;BMP_temperature;BMP_pressure;BME280_temperature;BME280_humidity;BME280_pressure;Samples;Min_cycle;Max_cycle;Signal;HPM_P1;HPM_P2
2022/10/07 00:00:44;;;;;;;4.33;4.03;;;14.70;99.90;;;;;;6214661;23;20416;-85
2022/10/07 00:03:11;;;;;;;6.00;3.93;;;14.70;99.90;;;;;;6217743;23;20424;-84
2022/10/07 00:05:38;;;;;;;6.43;3.80;;;14.80;99.90;;;;;;6218048;23;20430;-84
2022/10/07 00:08:05;;;;;;;4.50;4.10;;;14.80;99.90;;;;;;6217798;23;20480;-84
2022/10/07 00:10:32;;;;;;;4.20;3.90;;;14.80;99.90;;;;;;6217577;23;20409;-86
2022/10/07 00:13:00;;;;;;;4.30;3.10;;;14.80;99.90;;;;;;6217943;23;20400;-86
2022/10/07 00:15:26;;;;;;;3.20;2.90;;;14.80;99.90;;;;;;6218073;23;20985;-86
2022/10/07 00:17:55;;;;;;;4.17;3.30;;;14.80;99.90;;;;;;6217192;23;20494;-88
2022/10/07 00:20:21;;;;;;;5.07;4.67;;;14.70;99.90;;;;;;6217586;23;20453;-85
2022/10/07 00:22:48;;;;;;;4.90;3.73;;;14.60;99.90;;;;;;6216863;23;20421;-84
2022/10/07 00:25:15;;;;;;;6.07;4.00;;;14.60;99.90;;;;;;6216455;23;20409;-84
2022/10/07 00:27:42;;;;;;;4.20;3.80;;;14.70;99.90;;;;;;6216128;23;20526;-84
2022/10/07 00:30:10;;;;;;;5.63;4.13;;;14.60;99.90;;;;;;6215655;23;20501;-84
2022/10/07 00:32:37;;;;;;;4.47;4.17;;;14.70;99.90;;;;;;6216279;23;20415;-84
2022/10/07 00:35:06;;;;;;;4.93;4.00;;;14.70;99.90;;;;;;6216359;23;20496;-85
2022/10/07 00:37:33;;;;;;;5.27;3.27;;;14.70;99.90;;;;;;6215913;23;20831;-84
2022/10/07 00:39:59;;;;;;;8.03;4.00;;;14.80;99.90;;;;;;6215857;23;20410;-84
2022/10/07 00:42:28;;;;;;;4.50;4.10;;;14.70;99.90;;;;;;6216568;23;20814;-85
2022/10/07 00:44:55;;;;;;;4.70;3.73;;;14.60;99.90;;;;;;6215970;23;20414;-85
2022/10/07 00:47:28;;;;;;;6.30;3.53;;;14.50;99.90;;;;;;6214064;23;20955;-85
2022/10/07 00:49:57;;;;;;;7.27;4.03;;;14.30;99.90;;;;;;6214369;23;20877;-85
2022/10/07 00:52:29;;;;;;;5.30;3.80;;;14.20;99.90;;;;;;6214315;23;20442;-85
2022/10/07 00:54:57;;;;;;;4.70;4.30;;;14.10;99.90;;;;;;6214806;23;20407;-85
2022/10/07 00:57:27;;;;;;;4.67;3.70;;;14.10;99.90;;;;;;6214464;23;20462;-85
2022/10/07 00:59:55;;;;;;;3.53;3.23;;;14.20;99.90;;;;;;6214141;23;20412;-85
2022/10/07 01:02:24;;;;;;;3.93;3.50;;;14.40;99.90;;;;;;6214619;23;20495;-85
2022/10/07 01:04:52;;;;;;;6.80;4.53;;;14.50;99.90;;;;;;6214422;23;20414;-85
2022/10/07 01:07:20;;;;;;;8.67;3.80;;;14.50;99.90;;;;;;6214283;23;20450;-85
2022/10/07 01:09:50;;;;;;;6.87;4.10;;;14.50;99.90;;;;;;6214975;23;20480;-85
2022/10/07 01:12:23;;;;;;;5.80;4.13;;;14.50;99.90;;;;;;6214887;23;20932;-85
2022/10/07 01:14:59;;;;;;;4.00;3.70;;;14.40;99.90;;;;;;6214173;23;20393;-85
2022/10/07 01:17:32;;;;;;;4.27;3.83;;;14.20;99.90;;;;;;6214370;23;20483;-85
2022/10/07 01:20:14;;;;;;;5.90;4.50;;;14.10;99.90;;;;;;6214719;23;20461;-85
2022/10/07 01:22:49;;;;;;;4.60;3.57;;;14.30;99.90;;;;;;6216167;23;20405;-85
2022/10/07 01:25:31;;;;;;;7.23;3.97;;;14.30;99.90;;;;;;6216626;23;20398;-85
2022/10/07 01:28:02;;;;;;;4.20;3.80;;;14.40;99.90;;;;;;6215377;23;20441;-85
2022/10/07 01:30:34;;;;;;;4.63;4.33;;;14.40;99.90;;;;;;6216435;23;20393;-85
2022/10/07 01:33:04;;;;;;;4.10;3.70;;;14.10;99.90;;;;;;6216471;23;20468;-85
2022/10/07 01:35:34;;;;;;;4.40;4.10;;;14.00;99.90;;;;;;6217894;23;20945;-85
2022/10/07 01:38:05;;;;;;;11.13;3.80;;;13.80;99.90;;;;;;6217686;23;20434;-84
2022/10/07 01:40:35;;;;;;;7.93;4.17;;;13.90;99.90;;;;;;6217868;23;20504;-85
2022/10/07 01:43:05;;;;;;;6.77;4.60;;;13.90;99.90;;;;;;6218010;23;20398;-84
2022/10/07 01:45:34;;;;;;;7.20;4.27;;;14.00;99.90;;;;;;6217817;23;20496;-84
2022/10/07 01:48:01;;;;;;;6.33;4.33;;;14.10;99.90;;;;;;6217255;23;20449;-84
2022/10/07 01:50:29;;;;;;;5.60;3.93;;;13.90;99.90;;;;;;6216064;23;20500;-85
2022/10/07 01:53:11;;;;;;;5.00;4.20;;;13.70;99.90;;;;;;6216329;23;20456;-85
2022/10/07 01:55:50;;;;;;;9.20;5.50;;;13.70;99.90;;;;;;6216102;23;20471;-85
2022/10/07 01:58:32;;;;;;;4.73;4.13;;;13.90;99.90;;;;;;6215869;23;20390;-85
2022/10/07 02:01:05;;;;;;;5.40;4.90;;;13.80;99.90;;;;;;6216329;23;20476;-85
2022/10/07 02:04:03;;;;;;;4.80;4.40;;;13.80;99.90;;;;;;6215838;23;20872;-85
2022/10/07 02:06:39;;;;;;;4.70;4.00;;;13.90;99.90;;;;;;6215640;23;20920;-85
2022/10/07 02:09:16;;;;;;;4.30;3.90;;;14.00;99.90;;;;;;6215329;23;20377;-85
2022/10/07 02:11:47;;;;;;;4.67;4.27;;;13.90;99.90;;;;;;6216098;23;20388;-85
2022/10/07 02:14:19;;;;;;;4.97;3.90;;;13.90;99.90;;;;;;6215727;23;20477;-85
2022/10/07 02:16:48;;;;;;;5.13;4.40;;;14.00;99.90;;;;;;6215556;23;20424;-85
2022/10/07 02:19:20;;;;;;;7.20;4.13;;;14.20;99.90;;;;;;6215477;23;20892;-85
2022/10/07 02:21:49;;;;;;;4.73;4.33;;;14.20;99.90;;;;;;6215940;23;20397;-85
2022/10/07 02:24:19;;;;;;;4.10;3.70;;;14.20;99.90;;;;;;6215751;23;20393;-85
2022/10/07 02:26:47;;;;;;;6.50;4.47;;;14.30;99.90;;;;;;6215696;23;20939;-85
2022/10/07 02:29:20;;;;;;;8.70;4.63;;;14.40;99.90;;;;;;6215732;23;20788;-85
2022/10/07 02:31:48;;;;;;;4.00;3.63;;;14.50;99.90;;;;;;6215715;23;20422;-85
2022/10/07 02:34:18;;;;;;;4.30;3.90;;;14.50;99.90;;;;;;6216019;23;20457;-85
2022/10/07 02:36:50;;;;;;;6.53;4.53;;;14.50;99.90;;;;;;6215533;23;20438;-85
2022/10/07 02:39:17;;;;;;;5.13;4.63;;;14.60;99.90;;;;;;6215104;23;20425;-85
2022/10/07 02:41:50;;;;;;;4.23;3.90;;;14.50;99.90;;;;;;6215809;23;20488;-85
2022/10/07 02:44:24;;;;;;;4.20;3.80;;;14.30;99.90;;;;;;6215791;23;20806;-85
2022/10/07 02:46:55;;;;;;;7.00;4.10;;;14.10;99.90;;;;;;6215611;23;20420;-85
2022/10/07 02:49:25;;;;;;;6.43;4.17;;;13.90;99.90;;;;;;6215255;23;20440;-85
2022/10/07 02:51:57;;;;;;;5.27;4.63;;;13.90;99.90;;;;;;6215512;23;20475;-85
2022/10/07 02:54:27;;;;;;;5.30;4.80;;;13.90;99.90;;;;;;6215502;23;20400;-85
2022/10/07 02:56:54;;;;;;;5.00;4.50;;;14.00;99.90;;;;;;6215374;23;21099;-85
2022/10/07 02:59:25;;;;;;;5.43;3.70;;;14.10;99.90;;;;;;6214946;23;20409;-85
2022/10/07 03:01:55;;;;;;;4.43;4.07;;;14.10;99.90;;;;;;6215799;23;20425;-85
2022/10/07 03:04:22;;;;;;;5.10;4.77;;;14.20;99.90;;;;;;6215079;23;20425;-85
2022/10/07 03:06:49;;;;;;;8.40;4.47;;;14.30;99.90;;;;;;6215421;23;20425;-85
2022/10/07 03:09:16;;;;;;;5.07;4.03;;;14.30;99.90;;;;;;6215362;23;20397;-85
2022/10/07 03:11:43;;;;;;;3.97;3.67;;;14.40;99.90;;;;;;6215557;23;20410;-85
2022/10/07 03:14:10;;;;;;;4.93;3.83;;;14.50;99.90;;;;;;6215441;23;20413;-85
2022/10/07 03:16:38;;;;;;;6.53;3.57;;;14.50;99.90;;;;;;6230546;23;20476;-85
2022/10/07 03:19:05;;;;;;;4.87;3.90;;;14.60;99.90;;;;;;6215189;23;20909;-85
2022/10/07 03:21:33;;;;;;;4.57;3.80;;;14.60;99.90;;;;;;6215527;23;20415;-88
2022/10/07 03:24:03;;;;;;;5.30;4.37;;;14.70;99.90;;;;;;6215468;23;20402;-87
2022/10/07 03:26:31;;;;;;;5.30;4.87;;;14.70;99.90;;;;;;6215528;23;20446;-88
2022/10/07 03:28:59;;;;;;;3.73;3.43;;;14.70;99.90;;;;;;6215052;23;20441;-88
2022/10/07 03:31:27;;;;;;;4.87;4.33;;;14.70;99.90;;;;;;6215046;23;20416;-88
2022/10/07 03:33:56;;;;;;;3.73;3.53;;;14.70;99.90;;;;;;6215367;23;20426;-87
2022/10/07 03:36:24;;;;;;;3.90;3.60;;;14.90;99.90;;;;;;6215161;23;20490;-88
2022/10/07 03:38:51;;;;;;;4.60;4.20;;;14.70;99.90;;;;;;6214626;23;20403;-88
2022/10/07 03:41:19;;;;;;;6.10;4.07;;;14.70;99.90;;;;;;6214566;23;20421;-88
2022/10/07 03:43:46;;;;;;;4.47;4.10;;;14.70;99.90;;;;;;6215173;23;20469;-88
2022/10/07 03:46:13;;;;;;;4.73;4.27;;;14.70;99.90;;;;;;6214482;23;20434;-88
2022/10/07 03:48:40;;;;;;;4.70;3.77;;;14.70;99.90;;;;;;6214516;23;20450;-87
2022/10/07 03:51:08;;;;;;;4.37;3.63;;;14.70;99.90;;;;;;6214946;23;20943;-88
2022/10/07 03:53:38;;;;;;;4.50;3.67;;;14.70;99.90;;;;;;6214836;23;20401;-88
2022/10/07 03:56:06;;;;;;;5.83;4.00;;;14.70;99.90;;;;;;6215149;23;20428;-88
2022/10/07 03:58:33;;;;;;;4.80;3.70;;;14.70;99.90;;;;;;6215085;23;20905;-88
2022/10/07 04:01:07;;;;;;;3.37;3.07;;;14.70;99.90;;;;;;6216077;23;20484;-88
2022/10/07 04:03:34;;;;;;;5.50;3.90;;;14.80;99.90;;;;;;6239553;23;20496;-88
2022/10/07 04:06:02;;;;;;;5.03;3.97;;;14.80;99.90;;;;;;6242551;23;20729;-88
2022/10/07 04:08:31;;;;;;;5.00;3.40;;;14.80;99.90;;;;;;6232903;23;20446;-88
2022/10/07 04:10:59;;;;;;;6.47;5.83;;;14.80;99.90;;;;;;6231010;23;20395;-88
2022/10/07 04:13:26;;;;;;;4.40;3.67;;;14.80;99.90;;;;;;6228154;23;20426;-88
2022/10/07 04:15:53;;;;;;;4.47;3.50;;;14.80;99.90;;;;;;6235923;23;20437;-87
2022/10/07 04:18:20;;;;;;;5.03;3.40;;;14.80;99.90;;;;;;6238520;23;20400;-88
2022/10/07 04:20:47;;;;;;;4.97;4.57;;;14.80;99.90;;;;;;6238755;23;20500;-87
2022/10/07 04:23:15;;;;;;;5.67;3.60;;;14.80;99.90;;;;;;6229973;23;20439;-87
2022/10/07 04:25:46;;;;;;;3.90;3.20;;;14.80;99.90;;;;;;6219043;23;20411;-88
2022/10/07 04:28:18;;;;;;;3.90;3.50;;;14.80;99.90;;;;;;6217706;23;20529;-87
2022/10/07 04:30:49;;;;;;;5.03;4.03;;;14.80;99.90;;;;;;6217577;23;20401;-87
2022/10/07 04:33:17;;;;;;;3.90;3.60;;;14.80;99.90;;;;;;6218128;23;20403;-87
2022/10/07 04:35:44;;;;;;;4.93;4.00;;;14.80;99.90;;;;;;6217010;23;20778;-87
2022/10/07 04:38:12;;;;;;;4.10;3.70;;;14.80;99.90;;;;;;6212790;22;20942;-82
2022/10/07 04:40:40;;;;;;;5.07;3.90;;;14.80;99.90;;;;;;6214278;23;20976;-83
2022/10/07 04:43:32;;;;;;;5.33;4.10;;;14.80;99.90;;;;;;6214604;23;20418;-83
2022/10/07 04:46:05;;;;;;;3.70;3.40;;;14.80;99.90;;;;;;6215025;23;20472;-83
2022/10/07 04:48:33;;;;;;;5.10;3.90;;;14.80;99.90;;;;;;6184042;23;20827;-83
2022/10/07 04:51:04;;;;;;;5.23;4.73;;;14.80;99.90;;;;;;6185096;23;20453;-83
2022/10/07 04:53:36;;;;;;;6.17;5.67;;;14.70;99.90;;;;;;6184144;23;20441;-83
2022/10/07 04:56:08;;;;;;;4.50;4.10;;;14.70;99.90;;;;;;6183951;23;20475;-84
2022/10/07 04:58:49;;;;;;;5.33;4.37;;;14.70;99.90;;;;;;6184491;23;20414;-83
2022/10/07 05:01:16;;;;;;;5.33;4.90;;;14.70;99.90;;;;;;6184579;23;20480;-83
2022/10/07 05:03:43;;;;;;;7.67;4.40;;;14.60;99.90;;;;;;6184898;23;20420;-83
2022/10/07 05:06:15;;;;;;;6.87;4.77;;;14.60;99.90;;;;;;6184657;23;20645;-83
2022/10/07 05:08:48;;;;;;;6.93;4.10;;;14.60;99.90;;;;;;6184035;23;20532;-83
2022/10/07 05:11:20;;;;;;;5.80;4.30;;;14.60;99.90;;;;;;6184751;23;20402;-83
2022/10/07 05:13:48;;;;;;;5.83;4.80;;;14.60;99.90;;;;;;6184418;23;20414;-83
2022/10/07 05:16:18;;;;;;;8.57;4.80;;;14.60;99.90;;;;;;6184228;23;20407;-83
2022/10/07 05:18:49;;;;;;;5.23;4.63;;;14.60;99.90;;;;;;6184183;23;20417;-83
2022/10/07 05:21:16;;;;;;;6.93;5.30;;;14.60;99.90;;;;;;6184407;23;20426;-83
2022/10/07 05:23:45;;;;;;;6.10;4.67;;;14.60;99.90;;;;;;6184490;23;20417;-83
2022/10/07 05:26:14;;;;;;;9.03;5.73;;;14.60;99.90;;;;;;6184282;23;20422;-84
2022/10/07 05:28:44;;;;;;;5.90;4.57;;;14.60;99.90;;;;;;6183665;23;20441;-84
2022/10/07 05:31:15;;;;;;;7.03;5.23;;;14.60;99.90;;;;;;6183758;23;20512;-82
2022/10/07 05:33:42;;;;;;;5.23;4.60;;;14.60;99.90;;;;;;6184820;23;20470;-83
2022/10/07 05:36:10;;;;;;;5.77;5.30;;;14.60;99.90;;;;;;6184354;23;20474;-83
2022/10/07 05:38:37;;;;;;;6.10;5.13;;;14.60;99.90;;;;;;6160086;23;20540;-84
2022/10/07 05:41:06;;;;;;;6.23;5.73;;;14.70;99.90;;;;;;6155612;23;20745;-83
2022/10/07 05:43:47;;;;;;;7.60;6.70;;;14.70;99.90;;;;;;6154543;23;20933;-83
2022/10/07 05:46:16;;;;;;;7.90;7.20;;;14.70;99.90;;;;;;6154701;23;20407;-83
2022/10/07 05:48:46;;;;;;;6.70;6.10;;;14.70;99.90;;;;;;6153461;23;20749;-83
2022/10/07 05:51:14;;;;;;;6.60;5.80;;;14.80;99.90;;;;;;6154387;23;20409;-83
2022/10/07 05:53:41;;;;;;;6.20;5.60;;;14.80;99.90;;;;;;6153683;23;20475;-84
2022/10/07 05:56:10;;;;;;;13.20;6.30;;;14.90;99.90;;;;;;6153765;23;20470;-84
2022/10/07 05:58:37;;;;;;;6.53;6.00;;;14.90;99.90;;;;;;6154703;23;20500;-83
2022/10/07 06:01:06;;;;;;;12.10;5.87;;;15.00;99.90;;;;;;6154430;23;20433;-83
2022/10/07 06:03:34;;;;;;;7.70;6.43;;;15.00;99.90;;;;;;6154614;23;20440;-84
2022/10/07 06:06:01;;;;;;;7.00;5.80;;;15.10;99.90;;;;;;6154419;23;20440;-84
2022/10/07 06:08:28;;;;;;;7.57;6.80;;;15.20;99.90;;;;;;6156137;23;20447;-84
2022/10/07 06:13:47;;;;;;;7.90;5.60;;;15.30;99.90;;;;;;6156931;23;20374;-82
2022/10/07 06:16:15;;;;;;;6.27;5.67;;;15.30;99.90;;;;;;6157428;23;20416;-81
2022/10/07 06:18:43;;;;;;;6.70;5.97;;;15.30;99.90;;;;;;6157393;23;20412;-81
2022/10/07 06:21:10;;;;;;;7.53;6.70;;;15.30;99.90;;;;;;6156861;23;20959;-81
2022/10/07 06:23:36;;;;;;;7.73;6.97;;;15.30;99.90;;;;;;6157765;23;20890;-84
2022/10/07 06:26:05;;;;;;;7.67;6.87;;;15.30;99.90;;;;;;6157297;23;20412;-83
2022/10/07 06:28:33;;;;;;;7.70;7.10;;;15.40;99.90;;;;;;6157437;23;20452;-84
2022/10/07 06:31:03;;;;;;;7.87;6.80;;;15.40;99.90;;;;;;6157107;23;20419;-83
2022/10/07 06:33:30;;;;;;;7.93;7.13;;;15.40;99.90;;;;;;6158979;23;20395;-85
2022/10/07 06:36:05;;;;;;;7.07;6.37;;;15.40;99.90;;;;;;6157571;23;20920;-83
2022/10/07 06:38:32;;;;;;;8.10;7.10;;;15.40;99.90;;;;;;6156295;23;20789;-83
2022/10/07 06:41:00;;;;;;;6.90;6.20;;;15.40;99.90;;;;;;6158314;23;20719;-83
2022/10/07 06:43:27;;;;;;;7.70;6.90;;;15.50;99.90;;;;;;6157192;23;20416;-81
2022/10/07 06:45:57;;;;;;;6.97;6.30;;;15.50;99.90;;;;;;6157341;23;20732;-84
2022/10/07 06:48:24;;;;;;;9.50;7.37;;;15.40;99.90;;;;;;6157522;23;20459;-84
2022/10/07 06:50:51;;;;;;;7.00;6.37;;;15.40;99.90;;;;;;6157681;23;20396;-84
2022/10/07 06:53:20;;;;;;;6.77;6.17;;;15.50;99.90;;;;;;6158034;23;21010;-85
2022/10/07 06:55:46;;;;;;;6.47;5.87;;;15.60;99.90;;;;;;6158200;23;20412;-82
2022/10/07 06:58:13;;;;;;;8.20;6.30;;;15.60;99.90;;;;;;6156975;23;20515;-81
2022/10/07 07:00:40;;;;;;;8.83;5.97;;;15.70;99.90;;;;;;6156404;23;20420;-81
2022/10/07 07:03:07;;;;;;;7.73;5.97;;;15.70;99.90;;;;;;6157149;23;20503;-81
2022/10/07 07:05:37;;;;;;;9.87;6.10;;;15.60;99.90;;;;;;6157283;23;20451;-80
2022/10/07 07:08:04;;;;;;;6.33;5.80;;;15.60;99.90;;;;;;6157052;23;20462;-82
2022/10/07 07:10:36;;;;;;;7.53;6.77;;;15.70;99.90;;;;;;6157002;23;20425;-81
2022/10/07 07:13:06;;;;;;;7.73;6.77;;;15.70;99.90;;;;;;6156327;23;20404;-81
2022/10/07 07:15:33;;;;;;;6.63;6.00;;;15.60;99.90;;;;;;6157017;23;20506;-82
2022/10/07 07:18:00;;;;;;;6.40;5.63;;;15.60;99.90;;;;;;6156720;23;20439;-81
2022/10/07 07:20:33;;;;;;;7.00;4.97;;;15.60;99.90;;;;;;6156251;23;20451;-82
2022/10/07 07:23:00;;;;;;;10.50;5.70;;;15.50;99.90;;;;;;6156237;23;20784;-81
2022/10/07 07:25:27;;;;;;;6.73;5.53;;;15.60;99.90;;;;;;6155871;23;20413;-82
2022/10/07 07:27:59;;;;;;;8.73;7.87;;;15.70;99.90;;;;;;6155453;23;20432;-81
2022/10/07 07:30:26;;;;;;;6.83;5.67;;;15.60;99.90;;;;;;6156264;23;20402;-81
2022/10/07 07:32:54;;;;;;;9.33;7.60;;;15.60;99.90;;;;;;6155898;23;20419;-81
2022/10/07 07:35:21;;;;;;;9.03;6.57;;;15.60;99.90;;;;;;6157861;23;20804;-82
2022/10/07 07:37:49;;;;;;;6.80;6.07;;;15.70;99.90;;;;;;6158808;23;20976;-82
2022/10/07 07:40:16;;;;;;;6.67;5.97;;;15.60;99.90;;;;;;6159321;23;20448;-83
2022/10/07 07:42:44;;;;;;;6.93;6.10;;;15.70;99.90;;;;;;6160395;23;20742;-83
2022/10/07 07:45:13;;;;;;;7.50;5.33;;;15.80;99.90;;;;;;6159368;23;20419;-82
2022/10/07 07:47:40;;;;;;;6.10;5.50;;;15.80;99.90;;;;;;6159582;23;20441;-83
2022/10/07 07:50:08;;;;;;;6.00;5.33;;;15.80;99.90;;;;;;6159193;23;20404;-82
2022/10/07 07:52:35;;;;;;;6.90;5.67;;;15.90;99.90;;;;;;6160052;23;20448;-82
2022/10/07 07:55:02;;;;;;;4.87;4.43;;;15.90;99.90;;;;;;6159515;23;20419;-83
2022/10/07 07:57:30;;;;;;;5.43;4.93;;;16.00;99.90;;;;;;6159261;23;20456;-83
2022/10/07 07:59:57;;;;;;;6.23;4.47;;;16.10;99.90;;;;;;6159148;23;20443;-83
2022/10/07 08:02:25;;;;;;;6.90;5.30;;;16.20;99.90;;;;;;6159563;23;20410;-82
2022/10/07 08:04:52;;;;;;;5.60;4.87;;;16.30;99.90;;;;;;6159219;23;20412;-82
2022/10/07 08:07:19;;;;;;;4.63;4.23;;;16.40;99.90;;;;;;6159079;23;20488;-81
2022/10/07 08:09:46;;;;;;;4.70;4.27;;;16.50;99.90;;;;;;6159549;23;20792;-82
2022/10/07 08:12:13;;;;;;;6.37;4.20;;;16.70;99.90;;;;;;6159413;23;20416;-82
2022/10/07 08:14:40;;;;;;;5.10;4.63;;;16.50;99.90;;;;;;6159188;23;20450;-82
2022/10/07 08:17:07;;;;;;;4.10;3.70;;;16.60;99.90;;;;;;6158394;23;20433;-81
2022/10/07 08:19:35;;;;;;;4.90;4.47;;;16.60;99.90;;;;;;6158583;23;20539;-82
2022/10/07 08:22:01;;;;;;;4.20;3.80;;;16.70;99.90;;;;;;6159303;23;20409;-82
2022/10/07 08:24:28;;;;;;;5.70;5.20;;;16.80;99.90;;;;;;6159044;23;20409;-82
2022/10/07 08:26:55;;;;;;;5.30;4.80;;;17.00;99.90;;;;;;6170739;23;20425;-83
2022/10/07 08:29:22;;;;;;;5.40;4.60;;;17.00;99.90;;;;;;6159312;23;20474;-82
2022/10/07 08:31:49;;;;;;;4.80;4.40;;;17.00;99.90;;;;;;6159603;23;20421;-83
2022/10/07 08:34:25;;;;;;;5.13;4.40;;;17.00;99.90;;;;;;6158971;23;20897;-82
2022/10/07 08:36:55;;;;;;;5.40;4.90;;;16.90;99.90;;;;;;6158617;23;20518;-82
2022/10/07 08:39:23;;;;;;;5.17;4.77;;;16.90;99.90;;;;;;6159049;23;20480;-82
2022/10/07 08:41:56;;;;;;;4.90;4.10;;;17.00;99.90;;;;;;6158842;23;20495;-82
2022/10/07 08:44:27;;;;;;;5.47;4.00;;;17.20;99.90;;;;;;6160785;23;20698;-81
2022/10/07 08:47:05;;;;;;;4.13;3.73;;;17.40;99.90;;;;;;6175883;23;20456;-82
2022/10/07 08:49:39;;;;;;;4.30;3.90;;;17.30;99.90;;;;;;6175574;23;20445;-81
2022/10/07 08:52:28;;;;;;;6.70;5.10;;;17.40;99.90;;;;;;6167884;23;20393;-82
2022/10/07 08:54:55;;;;;;;6.77;4.60;;;17.50;99.90;;;;;;6160564;23;20398;-82
2022/10/07 08:57:34;;;;;;;4.60;4.20;;;17.50;99.90;;;;;;6159265;23;20437;-83
2022/10/07 09:00:05;;;;;;;7.57;5.27;;;17.60;99.90;;;;;;6158898;23;20434;-83
2022/10/07 09:02:43;;;;;;;4.50;4.07;;;17.70;99.90;;;;;;6158927;23;20393;-83
2022/10/07 09:05:20;;;;;;;7.60;6.17;;;17.70;99.90;;;;;;6159806;23;21241;-83
2022/10/07 09:07:52;;;;;;;7.60;5.00;;;17.80;99.90;;;;;;6158647;23;20464;-84
2022/10/07 09:10:31;;;;;;;5.67;5.27;;;17.90;99.90;;;;;;6159412;23;20862;-83
2022/10/07 09:13:02;;;;;;;6.20;5.03;;;18.00;99.90;;;;;;6160980;23;21104;-82
2022/10/07 09:15:38;;;;;;;6.70;4.80;;;18.10;99.90;;;;;;6157781;23;20401;-82
2022/10/07 09:18:12;;;;;;;5.30;4.80;;;18.20;99.90;;;;;;6157391;23;20987;-83
2022/10/07 09:20:44;;;;;;;5.53;5.00;;;18.20;99.90;;;;;;6163035;23;20445;-81
2022/10/07 09:23:15;;;;;;;5.70;5.10;;;18.20;99.90;;;;;;6164266;23;20399;-82
2022/10/07 09:25:43;;;;;;;8.17;6.17;;;18.30;99.90;;;;;;6157882;23;20402;-83
2022/10/07 09:28:13;;;;;;;5.13;4.63;;;18.20;99.90;;;;;;6158129;23;20808;-83
2022/10/07 09:30:41;;;;;;;7.97;5.93;;;18.30;99.90;;;;;;6158375;23;20429;-82
2022/10/07 09:33:14;;;;;;;6.23;5.43;;;18.40;99.90;;;;;;6158541;23;20418;-83
2022/10/07 09:35:44;;;;;;;6.47;5.40;;;18.50;99.90;;;;;;6157724;23;20462;-83
2022/10/07 09:38:12;;;;;;;6.87;6.37;;;18.60;99.90;;;;;;6172999;23;20445;-83
2022/10/07 09:41:14;;;;;;;6.37;5.80;;;18.60;99.90;;;;;;6153443;23;20866;-80
2022/10/07 09:43:31;;;;;;;5.00;4.50;;;18.80;99.90;;;;;;6160423;23;20411;-81
2022/10/07 09:45:59;;;;;;;6.47;5.10;;;19.00;99.90;;;;;;6161342;23;20494;-82
2022/10/07 09:48:29;;;;;;;4.87;4.53;;;19.10;99.90;;;;;;6160971;23;20434;-80
2022/10/07 09:51:14;;;;;;;7.83;5.40;;;19.20;99.90;;;;;;6160003;23;20953;-82
2022/10/07 09:53:58;;;;;;;5.30;4.83;;;19.30;99.90;;;;;;6161510;23;20398;-82
2022/10/07 09:56:35;;;;;;;5.40;5.00;;;19.30;99.90;;;;;;6161369;23;20427;-82
2022/10/07 09:59:18;;;;;;;4.77;4.37;;;19.40;99.90;;;;;;6161288;23;20397;-82
2022/10/07 10:01:52;;;;;;;4.40;4.03;;;19.30;99.90;;;;;;6160836;23;20405;-81
2022/10/07 10:04:31;;;;;;;5.37;4.93;;;19.40;99.90;;;;;;6162937;23;20838;-81
2022/10/07 10:07:03;;;;;;;5.87;5.40;;;19.40;99.90;;;;;;6161596;23;20438;-81
2022/10/07 10:09:33;;;;;;;6.10;5.10;;;19.50;99.90;;;;;;6161741;23;20395;-81
2022/10/07 10:12:18;;;;;;;5.70;5.13;;;19.60;99.90;;;;;;6160120;23;20410;-80
2022/10/07 10:14:48;;;;;;;5.73;5.17;;;19.60;99.90;;;;;;6160277;23;20387;-81
2022/10/07 10:17:33;;;;;;;5.17;4.67;;;19.70;99.90;;;;;;6169578;23;20432;-80
2022/10/07 10:20:38;;;;;;;5.30;4.80;;;19.60;99.90;;;;;;6169790;23;20515;-82
2022/10/07 10:23:26;;;;;;;6.23;5.70;;;19.70;99.90;;;;;;6044093;23;20430;-82
2022/10/07 10:28:58;;;;;;;5.80;5.30;;;20.00;99.90;;;;;;6141833;23;20405;-83
2022/10/07 10:31:32;;;;;;;6.57;5.90;;;20.20;99.90;;;;;;6163621;23;20492;-84
2022/10/07 10:34:08;;;;;;;6.13;5.57;;;20.40;99.90;;;;;;6164727;23;20393;-84
2022/10/07 10:36:38;;;;;;;6.37;5.73;;;20.60;99.90;;;;;;6164904;23;20420;-84
2022/10/07 10:39:19;;;;;;;5.97;5.53;;;20.80;99.90;;;;;;6165015;23;20415;-84
2022/10/07 10:41:53;;;;;;;4.93;4.53;;;21.00;99.90;;;;;;6164541;23;20390;-82
2022/10/07 10:44:41;;;;;;;6.13;5.30;;;21.20;99.90;;;;;;6162941;23;20400;-81
2022/10/07 10:47:16;;;;;;;7.43;6.40;;;21.60;99.90;;;;;;6157943;23;20436;-83
2022/10/07 10:49:53;;;;;;;7.57;5.23;;;22.00;99.90;;;;;;6165796;23;20399;-83
2022/10/07 10:52:31;;;;;;;5.27;4.80;;;22.30;99.10;;;;;;6164850;23;20400;-81
2022/10/07 10:55:16;;;;;;;7.30;6.30;;;22.50;97.80;;;;;;6166663;23;20408;-82
2022/10/07 10:57:54;;;;;;;6.03;5.43;;;22.80;97.30;;;;;;6165825;23;20465;-82
2022/10/07 11:00:22;;;;;;;5.27;4.77;;;22.90;97.00;;;;;;6163282;23;20972;-81
2022/10/07 11:03:12;;;;;;;5.77;5.30;;;23.20;96.90;;;;;;6163390;23;20411;-81
2022/10/07 11:05:41;;;;;;;6.20;5.60;;;23.70;96.40;;;;;;6164310;23;20401;-82
2022/10/07 11:08:15;;;;;;;6.70;6.10;;;24.10;96.00;;;;;;6166120;23;20444;-83
2022/10/07 11:10:50;;;;;;;8.23;5.87;;;24.60;94.80;;;;;;6165667;23;20856;-83
2022/10/07 11:13:30;;;;;;;6.70;6.10;;;25.00;94.40;;;;;;6172044;23;20447;-82
2022/10/07 11:16:01;;;;;;;7.53;6.83;;;25.20;92.70;;;;;;6166267;23;20860;-84
2022/10/07 11:18:34;;;;;;;6.60;5.33;;;25.10;92.20;;;;;;6163678;23;20401;-79
2022/10/07 11:21:06;;;;;;;6.43;5.93;;;25.60;92.90;;;;;;6162564;23;20430;-82
2022/10/07 11:23:43;;;;;;;7.17;6.57;;;26.00;91.60;;;;;;6164201;23;20396;-82
2022/10/07 11:26:16;;;;;;;7.70;5.60;;;26.30;91.00;;;;;;6164637;23;20396;-82
2022/10/07 11:28:46;;;;;;;5.80;5.17;;;26.80;90.00;;;;;;6164677;23;20419;-82
2022/10/07 11:31:20;;;;;;;8.37;7.03;;;26.50;88.30;;;;;;6163478;23;20410;-82
2022/10/07 11:33:52;;;;;;;6.37;5.10;;;26.50;88.60;;;;;;6163702;23;20729;-82
2022/10/07 11:36:24;;;;;;;6.20;5.60;;;26.60;90.10;;;;;;6163559;23;20403;-81
2022/10/07 11:38:53;;;;;;;5.57;5.20;;;26.90;89.20;;;;;;6163656;23;20766;-82
2022/10/07 11:41:27;;;;;;;8.93;6.57;;;27.50;88.70;;;;;;6163037;23;20775;-82
2022/10/07 11:43:59;;;;;;;6.30;5.80;;;28.20;85.80;;;;;;6163932;23;20407;-82
2022/10/07 11:46:30;;;;;;;6.70;6.00;;;28.70;81.80;;;;;;6175700;23;20438;-82
2022/10/07 11:49:01;;;;;;;5.90;5.40;;;29.00;81.20;;;;;;6178662;23;20950;-84
2022/10/07 11:51:34;;;;;;;6.33;5.57;;;28.90;78.00;;;;;;6172467;23;20409;-83
2022/10/07 11:54:05;;;;;;;6.90;5.37;;;28.90;78.80;;;;;;6163843;23;20409;-85
2022/10/07 11:56:37;;;;;;;6.43;5.37;;;29.10;76.90;;;;;;6163405;23;20436;-84
2022/10/07 11:59:07;;;;;;;5.93;5.43;;;29.00;76.90;;;;;;6162614;23;20430;-81
2022/10/07 12:01:46;;;;;;;6.30;5.80;;;28.90;77.50;;;;;;6162136;23;20455;-84
2022/10/07 12:04:37;;;;;;;6.83;6.30;;;28.80;76.60;;;;;;6159772;23;20871;-84
2022/10/07 12:07:36;;;;;;;7.10;6.47;;;28.70;75.70;;;;;;6158682;23;20434;-85
2022/10/07 12:10:25;;;;;;;7.50;7.00;;;28.70;76.70;;;;;;6156987;23;20492;-85
2022/10/07 12:12:55;;;;;;;6.80;5.60;;;28.90;76.30;;;;;;6159326;23;20423;-84
2022/10/07 12:15:39;;;;;;;8.50;6.90;;;29.30;75.60;;;;;;6158497;23;20410;-84
2022/10/07 12:18:27;;;;;;;6.67;6.17;;;29.80;74.00;;;;;;6157957;23;21205;-84
2022/10/07 12:21:02;;;;;;;7.73;7.03;;;30.20;72.50;;;;;;6157962;23;20744;-84
2022/10/07 12:23:40;;;;;;;6.40;6.00;;;30.60;71.20;;;;;;6159286;23;20465;-85
2022/10/07 12:26:49;;;;;;;5.30;4.93;;;29.80;69.50;;;;;;6160098;23;20396;-85
2022/10/07 12:29:50;;;;;;;5.87;5.40;;;29.60;71.50;;;;;;6161393;23;20389;-85
2022/10/07 12:32:44;;;;;;;5.47;4.97;;;29.20;71.40;;;;;;6166139;23;20402;-83
2022/10/07 12:35:51;;;;;;;5.67;5.23;;;29.30;73.30;;;;;;6163107;23;20412;-84
2022/10/07 12:38:28;;;;;;;5.90;5.40;;;29.60;71.60;;;;;;6152072;23;20460;-84
2022/10/07 12:41:24;;;;;;;6.87;6.17;;;29.50;71.30;;;;;;6162227;23;20456;-85
2022/10/07 12:43:59;;;;;;;6.80;6.30;;;29.30;71.30;;;;;;6162671;23;20417;-85
2022/10/07 12:46:30;;;;;;;11.30;6.20;;;28.70;72.60;;;;;;6162094;23;20455;-84
2022/10/07 12:49:02;;;;;;;6.47;5.97;;;28.60;73.00;;;;;;6161722;23;20484;-84
2022/10/07 12:51:35;;;;;;;6.00;5.40;;;28.30;73.30;;;;;;6161587;23;20417;-82
2022/10/07 12:54:04;;;;;;;6.67;6.20;;;28.30;74.20;;;;;;6159276;23;20411;-86
2022/10/07 12:56:31;;;;;;;6.90;6.40;;;28.40;73.80;;;;;;6159012;23;20759;-86
2022/10/07 12:59:47;;;;;;;6.47;5.97;;;28.20;72.90;;;;;;6160488;23;20739;-86
2022/10/07 13:02:44;;;;;;;5.57;5.07;;;27.90;74.40;;;;;;6160608;23;20456;-86
2022/10/07 13:05:46;;;;;;;5.23;4.87;;;28.10;74.30;;;;;;6162580;23;20399;-85
2022/10/07 13:08:55;;;;;;;6.93;6.33;;;28.40;74.10;;;;;;6157092;23;20551;-82
2022/10/07 13:11:55;;;;;;;5.50;5.10;;;28.20;73.30;;;;;;6163609;23;20391;-83
2022/10/07 13:14:28;;;;;;;4.70;4.40;;;27.90;75.00;;;;;;6162310;23;20419;-85
2022/10/07 13:17:02;;;;;;;6.27;5.60;;;28.20;74.90;;;;;;6158628;23;20828;-86